createdAt,value
2018-12-04T00:01:47.523Z,9.40
2018-12-04T00:04:16.193Z,9.40
2018-12-04T00:06:46.080Z,9.40
2018-12-04T00:09:14.438Z,9.40
2018-12-04T00:11:42.693Z,9.40
2018-12-04T00:14:11.729Z,9.40
2018-12-04T00:16:41.341Z,9.40
2018-12-04T00:19:09.530Z,9.40
2018-12-04T00:21:37.762Z,9.40
2018-12-04T00:24:06.144Z,9.40
2018-12-04T00:26:34.626Z,9.40
2018-12-04T00:29:03.120Z,9.40
2018-12-04T00:31:31.313Z,9.40
2018-12-04T00:34:00.121Z,9.40
2018-12-04T00:36:28.953Z,9.40
2018-12-04T00:38:57.438Z,9.40
2018-12-04T00:41:25.841Z,9.40
2018-12-04T00:43:54.401Z,9.30
2018-12-04T00:46:23.102Z,9.30
2018-12-04T00:48:51.302Z,9.30
2018-12-04T00:51:19.854Z,9.30
2018-12-04T00:53:48.546Z,9.40
2018-12-04T00:56:17.146Z,9.30
2018-12-04T00:58:46.206Z,9.30
2018-12-04T01:01:15.193Z,9.30
2018-12-04T01:03:44.099Z,9.20
2018-12-04T01:06:14.889Z,9.10
2018-12-04T01:08:43.326Z,8.90
2018-12-04T01:11:12.259Z,8.80
2018-12-04T01:13:40.995Z,8.80
2018-12-04T01:16:09.585Z,8.70
2018-12-04T01:18:37.802Z,8.70
2018-12-04T01:21:06.078Z,8.70
2018-12-04T01:23:34.369Z,8.60
2018-12-04T01:26:02.921Z,8.60
2018-12-04T01:28:31.137Z,8.60
2018-12-04T01:31:00.263Z,8.50
2018-12-04T01:33:29.324Z,8.50
2018-12-04T01:35:57.900Z,8.50
2018-12-04T01:38:26.494Z,8.40
2018-12-04T01:40:54.733Z,8.40
2018-12-04T01:43:23.096Z,8.40
2018-12-04T01:45:51.393Z,8.40
2018-12-04T01:48:19.598Z,8.40
2018-12-04T01:50:47.833Z,8.40
2018-12-04T01:53:16.499Z,8.50
2018-12-04T01:55:44.823Z,8.60
2018-12-04T01:58:13.226Z,8.70
2018-12-04T02:00:41.457Z,8.80
2018-12-04T02:03:09.905Z,8.90
2018-12-04T02:05:38.943Z,8.90
2018-12-04T02:08:07.482Z,8.90
2018-12-04T02:10:36.140Z,8.80
2018-12-04T02:13:04.448Z,8.80
2018-12-04T02:15:33.261Z,8.70
2018-12-04T02:18:02.220Z,8.70
2018-12-04T02:20:31.119Z,8.60
2018-12-04T02:22:59.596Z,8.60
2018-12-04T02:25:28.298Z,8.50
2018-12-04T02:27:57.005Z,8.50
2018-12-04T02:30:25.304Z,8.40
2018-12-04T02:32:53.541Z,8.40
2018-12-04T02:35:22.244Z,8.20
2018-12-04T02:37:51.377Z,8.20
2018-12-04T02:40:20.346Z,8.20
2018-12-04T02:42:49.321Z,8.10
2018-12-04T02:45:18.004Z,8.10
2018-12-04T02:47:46.373Z,8.00
2018-12-04T02:50:14.963Z,8.00
2018-12-04T02:52:44.434Z,8.00
2018-12-04T02:55:13.213Z,8.00
2018-12-04T02:57:42.573Z,8.00
2018-12-04T03:00:11.118Z,8.00
2018-12-04T03:02:40.489Z,8.00
2018-12-04T03:05:09.161Z,7.90
2018-12-04T03:07:38.081Z,8.00
2018-12-04T03:10:07.992Z,7.90
2018-12-04T03:12:37.646Z,7.90
2018-12-04T03:15:06.937Z,7.90
2018-12-04T03:17:36.219Z,8.00
2018-12-04T03:20:05.387Z,8.00
2018-12-04T03:22:34.437Z,8.10
2018-12-04T03:25:03.256Z,8.10
2018-12-04T03:27:32.543Z,8.20
2018-12-04T03:30:00.760Z,8.20
2018-12-04T03:32:29.179Z,8.30
2018-12-04T03:34:58.052Z,8.30
2018-12-04T03:37:26.429Z,8.30
2018-12-04T03:39:54.653Z,8.30
2018-12-04T03:42:23.043Z,8.20
2018-12-04T03:44:51.781Z,8.20
2018-12-04T03:47:20.989Z,8.30
2018-12-04T03:49:50.743Z,8.40
2018-12-04T03:52:19.355Z,8.40
2018-12-04T03:54:47.865Z,8.40
2018-12-04T03:57:16.070Z,8.40
2018-12-04T03:59:44.615Z,8.40
2018-12-04T04:02:12.993Z,8.40
2018-12-04T04:04:41.580Z,8.40
2018-12-04T04:07:10.614Z,8.40
2018-12-04T04:09:38.832Z,8.40
2018-12-04T04:12:07.101Z,8.40
2018-12-04T04:15:08.141Z,8.40
2018-12-04T04:17:37.383Z,8.20
2018-12-04T04:20:06.835Z,8.30
2018-12-04T04:22:35.033Z,8.30
2018-12-04T04:25:04.321Z,8.30
2018-12-04T04:27:32.755Z,8.30
2018-12-04T04:30:01.082Z,8.40
2018-12-04T04:32:29.922Z,8.40
2018-12-04T04:34:59.130Z,8.40
2018-12-04T04:37:27.406Z,8.40
2018-12-04T04:39:55.666Z,8.40
2018-12-04T04:42:24.285Z,8.40
2018-12-04T04:44:53.613Z,8.40
2018-12-04T04:47:22.231Z,8.40
2018-12-04T04:49:51.573Z,8.40
2018-12-04T04:52:19.818Z,8.40
2018-12-04T04:54:48.289Z,8.40
2018-12-04T04:57:16.785Z,8.50
2018-12-04T04:59:45.582Z,8.50
2018-12-04T05:02:14.659Z,8.40
2018-12-04T05:04:43.126Z,8.40
2018-12-04T05:07:11.350Z,8.40
2018-12-04T05:09:40.637Z,8.40
2018-12-04T05:12:09.474Z,8.40
2018-12-04T05:14:38.233Z,8.40
2018-12-04T05:17:06.719Z,8.40
2018-12-04T05:19:35.518Z,8.40
2018-12-04T05:22:03.950Z,8.40
2018-12-04T05:24:32.769Z,8.40
2018-12-04T05:27:01.249Z,8.40
2018-12-04T05:29:29.494Z,8.40
2018-12-04T05:31:57.993Z,8.40
2018-12-04T05:34:26.700Z,8.30
2018-12-04T05:36:55.124Z,8.30
2018-12-04T05:39:23.883Z,8.20
2018-12-04T05:41:52.306Z,8.20
2018-12-04T05:44:20.690Z,8.10
2018-12-04T05:46:49.621Z,8.00
2018-12-04T05:49:21.396Z,7.90
2018-12-04T05:51:49.812Z,7.90
2018-12-04T05:54:18.008Z,7.80
2018-12-04T05:56:46.190Z,7.80
2018-12-04T05:59:16.185Z,7.80
2018-12-04T06:01:44.803Z,7.80
2018-12-04T06:04:13.948Z,7.80
2018-12-04T06:06:42.752Z,7.80
2018-12-04T06:09:11.009Z,7.90
2018-12-04T06:11:39.351Z,7.90
2018-12-04T06:14:07.598Z,8.00
2018-12-04T06:16:35.959Z,8.00
2018-12-04T06:19:04.701Z,8.10
2018-12-04T06:21:32.933Z,8.20
2018-12-04T06:24:01.302Z,8.20
2018-12-04T06:26:29.909Z,8.20
2018-12-04T06:28:58.471Z,8.10
2018-12-04T06:31:27.636Z,8.10
2018-12-04T06:33:56.152Z,8.10
2018-12-04T06:36:24.749Z,8.10
2018-12-04T06:38:53.069Z,8.10
2018-12-04T06:41:21.521Z,8.10
2018-12-04T06:43:49.913Z,8.10
2018-12-04T06:46:18.185Z,8.10
2018-12-04T06:48:47.501Z,8.10
2018-12-04T06:51:15.889Z,8.10
2018-12-04T06:53:44.386Z,8.10
2018-12-04T06:56:13.498Z,8.10
2018-12-04T06:58:42.032Z,8.10
2018-12-04T07:01:10.616Z,8.10
2018-12-04T07:03:38.924Z,8.10
2018-12-04T07:06:07.761Z,8.20
2018-12-04T07:08:36.262Z,8.20
2018-12-04T07:11:04.742Z,8.20
2018-12-04T07:13:33.107Z,8.20
2018-12-04T07:16:01.313Z,8.10
2018-12-04T07:18:29.695Z,8.10
2018-12-04T07:20:58.025Z,8.10
2018-12-04T07:23:26.948Z,8.20
2018-12-04T07:25:55.165Z,8.20
2018-12-04T07:28:23.802Z,8.20
2018-12-04T07:30:52.054Z,8.20
2018-12-04T07:33:20.289Z,8.20
2018-12-04T07:35:48.721Z,8.20
2018-12-04T07:38:17.049Z,8.20
2018-12-04T07:40:45.273Z,8.30
2018-12-04T07:43:13.598Z,8.30
2018-12-04T07:45:42.099Z,8.30
2018-12-04T07:48:10.350Z,8.30
2018-12-04T07:50:38.598Z,8.20
2018-12-04T07:53:06.841Z,8.10
2018-12-04T07:55:35.474Z,7.70
2018-12-04T07:58:03.910Z,7.50
2018-12-04T08:00:32.102Z,7.40
2018-12-04T08:03:00.542Z,7.30
2018-12-04T08:05:28.901Z,7.30
2018-12-04T08:07:57.582Z,7.20
2018-12-04T08:10:25.966Z,7.20
2018-12-04T08:12:54.390Z,7.10
2018-12-04T08:15:22.658Z,7.10
2018-12-04T08:17:50.842Z,7.00
2018-12-04T08:20:19.387Z,7.00
2018-12-04T08:22:47.854Z,7.00
2018-12-04T08:25:16.111Z,7.00
2018-12-04T08:27:44.361Z,6.90
2018-12-04T08:30:12.764Z,7.00
2018-12-04T08:32:40.962Z,7.00
2018-12-04T08:35:10.678Z,7.00
2018-12-04T08:37:38.886Z,7.10
2018-12-04T08:40:08.450Z,7.10
2018-12-04T08:42:37.055Z,7.20
2018-12-04T08:45:07.565Z,7.10
2018-12-04T08:47:35.768Z,7.20
2018-12-04T08:50:04.511Z,7.10
2018-12-04T08:52:34.214Z,7.10
2018-12-04T08:55:03.115Z,7.10
2018-12-04T08:57:32.018Z,7.20
2018-12-04T09:00:00.285Z,7.30
2018-12-04T09:02:28.578Z,7.40
2018-12-04T09:04:56.786Z,7.50
2018-12-04T09:07:25.474Z,7.50
2018-12-04T09:09:53.846Z,7.50
2018-12-04T09:12:22.053Z,7.50
2018-12-04T09:14:50.282Z,7.40
2018-12-04T09:17:18.681Z,7.40
2018-12-04T09:19:47.415Z,7.40
2018-12-04T09:22:16.385Z,7.40
2018-12-04T09:24:45.062Z,7.30
2018-12-04T09:27:13.767Z,7.30
2018-12-04T09:29:42.571Z,7.30
2018-12-04T09:32:11.058Z,7.30
2018-12-04T09:34:39.501Z,7.30
2018-12-04T09:37:07.741Z,7.30
2018-12-04T09:39:36.634Z,7.40
2018-12-04T09:42:05.224Z,7.40
2018-12-04T09:44:33.513Z,7.50
2018-12-04T09:47:01.740Z,7.50
2018-12-04T09:49:30.037Z,7.50
2018-12-04T09:51:58.301Z,7.50
2018-12-04T09:54:26.569Z,7.50
2018-12-04T09:56:54.930Z,7.40
2018-12-04T09:59:23.254Z,7.40
2018-12-04T10:01:52.702Z,7.50
2018-12-04T10:04:20.972Z,7.40
2018-12-04T10:06:49.205Z,7.40
2018-12-04T10:09:17.690Z,7.40
2018-12-04T10:11:46.114Z,7.40
2018-12-04T10:14:14.512Z,7.30
2018-12-04T10:16:43.114Z,7.30
2018-12-04T10:19:12.067Z,7.30
2018-12-04T10:21:40.646Z,7.30
2018-12-04T10:24:09.367Z,7.40
2018-12-04T10:26:37.746Z,7.40
2018-12-04T10:29:06.151Z,7.40
2018-12-04T10:31:34.430Z,7.40
2018-12-04T10:34:02.771Z,7.50
2018-12-04T10:36:31.178Z,7.60
2018-12-04T10:38:59.902Z,7.70
2018-12-04T10:41:29.094Z,7.80
2018-12-04T10:43:57.290Z,7.80
2018-12-04T10:46:25.673Z,7.80
2018-12-04T10:48:54.141Z,7.90
2018-12-04T10:51:22.502Z,7.90
2018-12-04T10:53:50.834Z,7.90
2018-12-04T10:56:19.165Z,7.90
2018-12-04T10:58:48.521Z,7.70
2018-12-04T11:01:25.199Z,7.70
2018-12-04T11:03:53.460Z,7.70
2018-12-04T11:06:22.336Z,7.70
2018-12-04T11:08:50.774Z,7.90
2018-12-04T11:11:19.011Z,7.90
2018-12-04T11:13:47.558Z,7.80
2018-12-04T11:16:15.817Z,7.80
2018-12-04T11:18:44.125Z,7.80
2018-12-04T11:21:12.585Z,7.70
2018-12-04T11:23:41.425Z,7.70
2018-12-04T11:26:09.933Z,7.80
2018-12-04T11:28:38.258Z,7.80
2018-12-04T11:31:06.638Z,7.90
2018-12-04T11:33:35.130Z,7.90
2018-12-04T11:36:03.491Z,7.90
2018-12-04T11:38:31.698Z,8.00
2018-12-04T11:41:00.082Z,8.00
2018-12-04T11:43:28.321Z,8.10
2018-12-04T11:45:56.634Z,8.10
2018-12-04T11:48:24.849Z,8.20
2018-12-04T11:50:53.205Z,8.20
2018-12-04T11:53:21.389Z,8.30
2018-12-04T11:55:49.837Z,8.10
2018-12-04T11:58:18.070Z,8.20
2018-12-04T12:00:46.785Z,8.20
2018-12-04T12:03:15.065Z,8.20
2018-12-04T12:05:43.626Z,8.30
2018-12-04T12:08:11.864Z,8.30
2018-12-04T12:10:40.250Z,8.50
2018-12-04T12:13:08.670Z,8.80
2018-12-04T12:15:36.897Z,9.00
2018-12-04T12:18:05.197Z,9.10
2018-12-04T12:20:33.491Z,9.00
2018-12-04T12:23:01.673Z,8.80
2018-12-04T12:25:30.141Z,8.70
2018-12-04T12:27:58.434Z,8.50
2018-12-04T12:30:26.766Z,8.30
2018-12-04T12:32:55.099Z,8.30
2018-12-04T12:35:23.333Z,8.20
2018-12-04T12:37:51.905Z,8.10
2018-12-04T12:40:20.349Z,8.20
2018-12-04T12:42:48.557Z,8.10
2018-12-04T12:45:16.742Z,8.00
2018-12-04T12:47:44.938Z,8.00
2018-12-04T12:50:13.446Z,8.00
2018-12-04T12:52:41.705Z,8.00
2018-12-04T12:55:09.914Z,7.90
2018-12-04T12:57:38.193Z,8.00
2018-12-04T13:00:08.436Z,7.90
2018-12-04T13:02:39.852Z,7.90
2018-12-04T13:05:08.330Z,7.90
2018-12-04T13:07:36.549Z,7.90
2018-12-04T13:10:06.529Z,7.90
2018-12-04T13:12:35.402Z,7.80
2018-12-04T13:15:04.354Z,7.80
2018-12-04T13:17:32.586Z,7.70
2018-12-04T13:20:02.400Z,7.70
2018-12-04T13:22:30.650Z,7.70
2018-12-04T13:24:59.017Z,7.70
2018-12-04T13:27:27.537Z,7.60
2018-12-04T13:29:55.859Z,7.60
2018-12-04T13:32:24.370Z,7.60
2018-12-04T13:34:52.707Z,7.60
2018-12-04T13:37:20.992Z,7.60
2018-12-04T13:39:49.532Z,7.60
2018-12-04T13:42:17.889Z,7.60
2018-12-04T13:44:46.373Z,7.60
2018-12-04T13:47:14.636Z,7.60
2018-12-04T13:49:43.055Z,7.60
2018-12-04T13:52:12.664Z,7.60
2018-12-04T13:54:41.385Z,7.60
2018-12-04T13:57:09.817Z,7.70
2018-12-04T13:59:38.178Z,7.70
2018-12-04T14:02:06.834Z,7.60
2018-12-04T14:04:42.121Z,7.60
2018-12-04T14:07:10.532Z,7.60
2018-12-04T14:09:38.981Z,7.60
2018-12-04T14:12:08.263Z,7.60
2018-12-04T14:14:36.522Z,7.60
2018-12-04T14:17:05.151Z,7.60
2018-12-04T14:19:33.879Z,7.50
2018-12-04T14:22:02.178Z,7.50
2018-12-04T14:24:30.418Z,7.40
2018-12-04T14:26:58.740Z,7.30
2018-12-04T14:29:27.054Z,7.20
2018-12-04T14:31:55.834Z,7.30
2018-12-04T14:34:24.179Z,7.20
2018-12-04T14:36:52.694Z,7.20
2018-12-04T14:39:20.994Z,7.20
2018-12-04T14:41:49.325Z,7.20
2018-12-04T14:44:17.554Z,7.20
2018-12-04T14:46:46.288Z,7.20
2018-12-04T14:49:14.574Z,7.20
2018-12-04T14:51:42.821Z,7.20
2018-12-04T14:54:11.222Z,7.10
2018-12-04T14:56:39.629Z,7.20
2018-12-04T14:59:07.882Z,7.20
2018-12-04T15:01:36.093Z,7.10
2018-12-04T15:04:04.428Z,7.10
2018-12-04T15:06:33.166Z,7.10
2018-12-04T15:09:01.767Z,7.00
2018-12-04T15:11:30.331Z,7.00
2018-12-04T15:13:58.940Z,7.00
2018-12-04T15:16:27.266Z,6.90
2018-12-04T15:18:55.669Z,6.80
2018-12-04T15:21:24.232Z,6.80
2018-12-04T15:23:52.518Z,6.80
2018-12-04T15:26:20.760Z,6.80
2018-12-04T15:28:49.826Z,6.70
2018-12-04T15:31:18.265Z,6.70
2018-12-04T15:33:46.622Z,6.70
2018-12-04T15:36:14.886Z,6.70
2018-12-04T15:38:43.362Z,6.60
2018-12-04T15:41:11.721Z,6.60
2018-12-04T15:43:40.046Z,6.60
2018-12-04T15:46:08.293Z,6.60
2018-12-04T15:48:36.906Z,6.60
2018-12-04T15:51:06.455Z,6.60
2018-12-04T15:53:36.399Z,6.60
2018-12-04T15:56:05.405Z,6.60
2018-12-04T15:58:34.061Z,6.60
2018-12-04T16:01:02.282Z,6.60
2018-12-04T16:03:30.845Z,6.60
2018-12-04T16:05:59.260Z,6.70
2018-12-04T16:08:28.630Z,6.70
2018-12-04T16:10:57.221Z,6.70
2018-12-04T16:13:25.848Z,6.70
2018-12-04T16:15:54.783Z,6.70
2018-12-04T16:18:23.137Z,6.70
2018-12-04T16:20:52.703Z,6.70
2018-12-04T16:23:21.443Z,6.70
2018-12-04T16:25:50.629Z,6.70
2018-12-04T16:28:19.270Z,6.70
2018-12-04T16:30:48.610Z,6.60
2018-12-04T16:33:16.991Z,6.50
2018-12-04T16:35:45.465Z,6.50
2018-12-04T16:38:14.522Z,6.40
2018-12-04T16:40:42.785Z,6.40
2018-12-04T16:43:11.125Z,6.30
2018-12-04T16:45:40.019Z,6.20
2018-12-04T16:48:08.275Z,6.30
2018-12-04T16:50:36.757Z,6.20
2018-12-04T16:53:05.313Z,6.20
2018-12-04T16:55:34.609Z,6.10
2018-12-04T16:58:02.939Z,6.10
2018-12-04T17:00:31.883Z,6.10
2018-12-04T17:03:01.181Z,6.10
2018-12-04T17:05:36.404Z,6.10
2018-12-04T17:08:04.639Z,6.10
2018-12-04T17:10:34.503Z,6.10
2018-12-04T17:13:07.099Z,6.00
2018-12-04T17:15:36.042Z,6.00
2018-12-04T17:18:04.531Z,6.00
2018-12-04T17:20:32.782Z,6.00
2018-12-04T17:23:01.050Z,6.00
2018-12-04T17:25:29.623Z,6.00
2018-12-04T17:27:58.387Z,6.00
2018-12-04T17:30:26.915Z,5.90
2018-12-04T17:32:56.199Z,5.90
2018-12-04T17:35:24.815Z,5.90
2018-12-04T17:37:53.442Z,5.90
2018-12-04T17:40:22.141Z,5.90
2018-12-04T17:42:50.428Z,5.90
2018-12-04T17:45:19.318Z,5.90
2018-12-04T17:47:47.590Z,5.90
2018-12-04T17:50:16.013Z,5.90
2018-12-04T17:52:45.011Z,5.90
2018-12-04T17:55:13.721Z,5.90
2018-12-04T17:57:42.125Z,5.80
2018-12-04T18:00:12.457Z,5.90
2018-12-04T18:02:41.120Z,5.90
2018-12-04T18:05:10.177Z,5.80
2018-12-04T18:07:38.498Z,5.80
2018-12-04T18:10:09.546Z,5.80
2018-12-04T18:12:37.977Z,5.90
2018-12-04T18:15:08.460Z,5.80
2018-12-04T18:17:36.745Z,5.80
2018-12-04T18:20:05.617Z,5.70
2018-12-04T18:22:33.976Z,5.70
2018-12-04T18:25:02.334Z,5.70
2018-12-04T18:27:30.843Z,5.80
2018-12-04T18:29:59.990Z,5.70
2018-12-04T18:32:29.245Z,5.80
2018-12-04T18:34:57.616Z,5.80
2018-12-04T18:37:26.116Z,5.80
2018-12-04T18:39:54.385Z,5.90
2018-12-04T18:42:23.229Z,5.90
2018-12-04T18:44:52.186Z,5.80
2018-12-04T18:47:20.645Z,5.90
2018-12-04T18:49:49.878Z,5.90
2018-12-04T18:52:18.745Z,5.80
2018-12-04T18:54:47.510Z,5.80
2018-12-04T18:57:16.257Z,5.80
2018-12-04T18:59:45.410Z,5.80
2018-12-04T19:02:13.748Z,5.80
2018-12-04T19:04:43.158Z,5.90
2018-12-04T19:07:11.839Z,5.90
2018-12-04T19:09:40.510Z,5.90
2018-12-04T19:12:08.861Z,5.80
2018-12-04T19:14:37.147Z,5.80
2018-12-04T19:17:05.553Z,5.80
2018-12-04T19:19:34.556Z,5.80
2018-12-04T19:22:04.150Z,5.70
2018-12-04T19:24:32.526Z,5.70
2018-12-04T19:27:01.407Z,5.70
2018-12-04T19:29:30.015Z,5.70
2018-12-04T19:31:58.814Z,5.60
2018-12-04T19:34:27.309Z,5.60
2018-12-04T19:36:56.179Z,5.50
2018-12-04T19:39:24.886Z,5.50
2018-12-04T19:41:53.942Z,5.50
2018-12-04T19:44:23.108Z,5.50
2018-12-04T19:46:52.160Z,5.40
2018-12-04T19:49:20.683Z,5.40
2018-12-04T19:51:49.439Z,5.40
2018-12-04T19:54:18.182Z,5.40
2018-12-04T19:56:46.517Z,5.30
2018-12-04T19:59:15.397Z,5.30
2018-12-04T20:01:44.270Z,5.40
2018-12-04T20:04:12.931Z,5.40
2018-12-04T20:06:42.473Z,5.40
2018-12-04T20:09:11.892Z,5.40
2018-12-04T20:11:40.847Z,5.40
2018-12-04T20:14:09.199Z,5.40
2018-12-04T20:16:38.146Z,5.40
2018-12-04T20:19:06.711Z,5.50
2018-12-04T20:21:35.294Z,5.40
2018-12-04T20:24:04.024Z,5.50
2018-12-04T20:26:32.780Z,5.50
2018-12-04T20:29:01.298Z,5.40
2018-12-04T20:31:30.047Z,5.40
2018-12-04T20:33:58.572Z,5.40
2018-12-04T20:36:26.856Z,5.40
2018-12-04T20:38:55.729Z,5.40
2018-12-04T20:41:24.229Z,5.40
2018-12-04T20:43:53.837Z,5.40
2018-12-04T20:46:22.496Z,5.40
2018-12-04T20:48:51.272Z,5.40
2018-12-04T20:51:19.875Z,5.40
2018-12-04T20:53:48.653Z,5.40
2018-12-04T20:56:17.142Z,5.40
2018-12-04T20:58:46.679Z,5.30
2018-12-04T21:01:15.387Z,5.30
2018-12-04T21:03:43.990Z,5.20
2018-12-04T21:06:12.539Z,5.20
2018-12-04T21:08:43.320Z,5.20
2018-12-04T21:11:12.431Z,5.20
2018-12-04T21:13:41.349Z,5.20
2018-12-04T21:16:10.295Z,5.30
2018-12-04T21:18:40.074Z,5.20
2018-12-04T21:21:08.945Z,5.20
2018-12-04T21:23:37.877Z,5.20
2018-12-04T21:26:06.786Z,5.30
2018-12-04T21:28:35.617Z,5.30
2018-12-04T21:31:09.819Z,5.30
2018-12-04T21:33:44.198Z,5.30
2018-12-04T21:36:18.352Z,5.30
2018-12-04T21:38:53.503Z,5.30
2018-12-04T21:41:28.061Z,5.20
2018-12-04T21:44:02.083Z,5.20
2018-12-04T21:46:36.388Z,5.20
2018-12-04T21:49:06.118Z,5.20
2018-12-04T21:51:35.590Z,5.20
2018-12-04T21:54:04.561Z,5.10
2018-12-04T21:56:34.264Z,5.10
2018-12-04T21:59:03.220Z,5.10
2018-12-04T22:01:31.462Z,5.10
2018-12-04T22:03:59.709Z,5.00
2018-12-04T22:06:28.977Z,5.00
2018-12-04T22:08:58.332Z,5.00
2018-12-04T22:11:26.666Z,4.90
2018-12-04T22:13:55.893Z,4.90
2018-12-04T22:16:24.169Z,4.90
2018-12-04T22:18:52.870Z,4.90
2018-12-04T22:21:21.108Z,4.90
2018-12-04T22:23:49.600Z,4.90
2018-12-04T22:26:18.419Z,4.90
2018-12-04T22:28:47.063Z,5.00
2018-12-04T22:31:15.406Z,4.90
2018-12-04T22:33:44.083Z,5.00
2018-12-04T22:36:12.722Z,5.00
2018-12-04T22:38:41.552Z,5.00
2018-12-04T22:41:10.532Z,5.00
2018-12-04T22:43:39.281Z,5.00
2018-12-04T22:46:07.722Z,5.00
2018-12-04T22:48:36.375Z,5.00
2018-12-04T22:51:05.804Z,5.00
2018-12-04T22:53:34.063Z,5.00
2018-12-04T22:56:03.419Z,5.00
2018-12-04T22:58:32.080Z,5.00
2018-12-04T23:01:00.442Z,5.00
2018-12-04T23:03:29.031Z,5.00
2018-12-04T23:05:57.494Z,5.00
2018-12-04T23:08:25.739Z,5.00
2018-12-04T23:10:54.236Z,5.00
2018-12-04T23:13:22.466Z,5.10
2018-12-04T23:15:50.711Z,5.20
2018-12-04T23:18:19.094Z,5.30
2018-12-04T23:20:47.476Z,5.30
2018-12-04T23:23:16.150Z,5.30
2018-12-04T23:25:44.597Z,5.30
2018-12-04T23:28:13.048Z,5.20
2018-12-04T23:30:42.338Z,5.20
2018-12-04T23:33:11.645Z,5.10
2018-12-04T23:35:40.473Z,5.20
2018-12-04T23:38:09.373Z,5.30
2018-12-04T23:40:38.282Z,5.30
2018-12-04T23:43:06.726Z,5.40
2018-12-04T23:45:35.730Z,5.30
2018-12-04T23:48:04.625Z,5.30
2018-12-04T23:50:32.962Z,5.40
2018-12-04T23:53:01.633Z,5.40
2018-12-04T23:55:29.966Z,5.40
2018-12-04T23:57:59.797Z,5.40
